createdAt,value
2016-08-28T16:54:38.573Z,53
2016-08-28T16:54:59.693Z,52
2016-08-28T16:55:14.047Z,53
2016-08-28T16:55:30.951Z,54
2016-08-28T16:55:42.143Z,54
2016-08-28T16:55:54.233Z,55
2016-08-28T16:56:07.374Z,55
2016-08-28T16:56:18.738Z,55
2016-08-28T16:56:39.676Z,55
2016-08-28T16:56:51.163Z,54
2016-08-28T16:57:06.066Z,54
2016-08-28T16:57:23.298Z,55
2016-08-28T16:57:36.348Z,55
2016-08-28T16:57:47.703Z,55
2016-08-28T16:58:01.665Z,55
2016-08-28T16:58:15.667Z,55
2016-08-28T16:58:29.846Z,55
2016-08-28T16:58:46.783Z,55
2016-08-28T16:58:57.957Z,55
2016-08-28T16:59:09.207Z,55
2016-08-28T16:59:20.327Z,55
2016-08-28T16:59:31.426Z,55
2016-08-28T16:59:42.695Z,55
2016-08-28T16:59:59.703Z,55
2016-08-28T17:00:10.866Z,55
2016-08-28T17:00:22.066Z,55
2016-08-28T17:00:36.144Z,55
2016-08-28T17:00:48.256Z,55
2016-08-28T17:01:05.768Z,55
2016-08-28T17:01:17.034Z,55
2016-08-28T17:01:28.179Z,55
2016-08-28T17:01:45.162Z,55
2016-08-28T17:01:59.151Z,54
2016-08-28T17:02:10.370Z,54
2016-08-28T17:02:21.530Z,54
2016-08-28T17:02:35.621Z,54
2016-08-28T17:02:49.664Z,54
2016-08-28T17:03:00.881Z,54
2016-08-28T17:03:18.731Z,54
2016-08-28T17:03:29.935Z,54
2016-08-28T17:03:41.203Z,54
2016-08-28T17:03:52.277Z,54
2016-08-28T17:04:06.250Z,54
2016-08-28T17:04:20.366Z,54
2016-08-28T17:04:31.546Z,54
2016-08-28T17:04:42.737Z,54
2016-08-28T17:04:53.969Z,54
2016-08-28T17:05:10.848Z,54
2016-08-28T17:05:24.937Z,54
2016-08-28T17:05:38.994Z,54
2016-08-28T17:05:50.097Z,54
2016-08-28T17:06:01.319Z,54
2016-08-28T17:06:18.294Z,54
2016-08-28T17:06:29.459Z,54
2016-08-28T17:06:40.699Z,54
2016-08-28T17:06:57.739Z,54
2016-08-28T17:07:08.904Z,54
2016-08-28T17:07:20.035Z,54
2016-08-28T17:07:34.025Z,54
2016-08-28T17:07:48.121Z,54
2016-08-28T17:08:02.099Z,54
2016-08-28T17:08:15.989Z,54
2016-08-28T17:08:30.082Z,54
2016-08-28T17:08:41.175Z,54
2016-08-28T17:08:55.325Z,54
2016-08-28T17:09:09.304Z,54
2016-08-28T17:09:26.153Z,54
2016-08-28T17:09:40.039Z,54
2016-08-28T17:09:51.282Z,53
2016-08-28T17:10:02.466Z,53
2016-08-28T17:10:13.601Z,53
2016-08-28T17:10:27.726Z,53
2016-08-28T17:10:38.995Z,53
2016-08-28T17:10:55.818Z,53
2016-08-28T17:11:09.865Z,54
2016-08-28T17:11:21.157Z,54
2016-08-28T17:11:35.226Z,54
2016-08-28T17:11:46.254Z,54
2016-08-28T17:11:57.532Z,54
2016-08-28T17:12:11.440Z,54
2016-08-28T17:12:25.472Z,54
2016-08-28T17:12:39.624Z,54
2016-08-28T17:12:50.740Z,54
2016-08-28T17:13:01.892Z,54
2016-08-28T17:13:13.077Z,54
2016-08-28T17:13:24.180Z,54
2016-08-28T17:13:35.440Z,54
2016-08-28T17:13:49.450Z,54
2016-08-28T17:14:00.446Z,54
2016-08-28T17:14:14.557Z,54
2016-08-28T17:14:31.570Z,54
2016-08-28T17:14:42.671Z,54
2016-08-28T17:14:56.739Z,54
2016-08-28T17:15:07.965Z,54
2016-08-28T17:15:22.005Z,54
2016-08-28T17:15:33.185Z,54
2016-08-28T17:15:44.330Z,53
2016-08-28T17:15:55.566Z,54
2016-08-28T17:16:06.782Z,54
2016-08-28T17:16:20.812Z,54
2016-08-28T17:16:31.915Z,54
2016-08-28T17:16:43.142Z,54
2016-08-28T17:16:57.262Z,54
2016-08-28T17:17:14.142Z,54
2016-08-28T17:17:25.355Z,54
2016-08-28T17:17:36.527Z,54
2016-08-28T17:17:47.589Z,54
2016-08-28T17:18:01.748Z,54
2016-08-28T17:18:15.764Z,54
2016-08-28T17:18:26.925Z,54
2016-08-28T17:18:38.062Z,54
2016-08-28T17:18:49.282Z,54
2016-08-28T17:19:03.373Z,54
2016-08-28T17:19:14.534Z,54
2016-08-28T17:19:25.829Z,54
2016-08-28T17:19:37.033Z,54
2016-08-28T17:19:51.069Z,55
2016-08-28T17:20:02.207Z,54
2016-08-28T17:20:16.387Z,54
2016-08-28T17:20:30.508Z,54
2016-08-28T17:20:47.464Z,54
2016-08-28T17:20:58.615Z,54
2016-08-28T17:21:09.780Z,54
2016-08-28T17:21:23.873Z,54
2016-08-28T17:21:35.025Z,54
2016-08-28T17:21:46.229Z,54
2016-08-28T17:22:00.294Z,54
2016-08-28T17:22:14.395Z,54
2016-08-28T17:22:25.573Z,54
2016-08-28T17:22:39.533Z,54
2016-08-28T17:22:53.435Z,54
2016-08-28T17:23:07.570Z,54
2016-08-28T17:23:21.600Z,54
2016-08-28T17:23:32.776Z,54
2016-08-28T17:23:46.855Z,54
2016-08-28T17:23:57.975Z,54
2016-08-28T17:24:09.160Z,54
2016-08-28T17:24:23.216Z,54
2016-08-28T17:24:37.243Z,54
2016-08-28T17:24:48.483Z,54
2016-08-28T17:24:59.718Z,54
2016-08-28T17:25:16.675Z,54
2016-08-28T17:25:30.797Z,54
2016-08-28T17:25:46.203Z,54
2016-08-28T17:26:00.203Z,54
2016-08-28T17:26:14.287Z,54
2016-08-28T17:26:31.304Z,54
2016-08-28T17:26:48.276Z,54
2016-08-28T17:26:59.500Z,54
2016-08-28T17:27:16.475Z,54
2016-08-28T17:27:30.658Z,54
2016-08-28T17:27:44.687Z,54
2016-08-28T17:28:01.628Z,53
2016-08-28T17:28:15.683Z,53
2016-08-28T17:28:26.867Z,53
2016-08-28T17:28:40.796Z,54
2016-08-28T17:28:52.010Z,54
2016-08-28T17:29:03.204Z,54
2016-08-28T17:29:14.296Z,54
2016-08-28T17:29:25.448Z,54
2016-08-28T17:29:39.475Z,54
2016-08-28T17:29:56.380Z,54
2016-08-28T17:30:10.424Z,54
2016-08-28T17:30:24.331Z,54
2016-08-28T17:30:35.529Z,54
2016-08-28T17:30:49.611Z,54
2016-08-28T17:31:04.451Z,54
2016-08-28T17:31:15.637Z,54
2016-08-28T17:31:29.694Z,54
2016-08-28T17:31:40.859Z,54
2016-08-28T17:31:51.975Z,54
2016-08-28T17:32:08.952Z,54
2016-08-28T17:32:25.873Z,54
2016-08-28T17:32:39.965Z,54
2016-08-28T17:32:53.916Z,54
2016-08-28T17:33:05.095Z,54
2016-08-28T17:33:16.853Z,54
2016-08-28T17:33:29.443Z,54
2016-08-28T17:33:46.617Z,54
2016-08-28T17:33:57.734Z,54
2016-08-28T17:34:14.752Z,54
2016-08-28T17:34:33.837Z,54
2016-08-28T17:34:45.331Z,54
2016-08-28T17:35:00.038Z,54
2016-08-28T17:35:16.894Z,54
2016-08-28T17:35:30.951Z,55
2016-08-28T17:35:45.027Z,55
2016-08-28T17:35:56.306Z,54
2016-08-28T17:36:13.377Z,54
2016-08-28T17:36:27.936Z,54
2016-08-28T17:36:42.050Z,54
2016-08-28T17:36:56.090Z,54
2016-08-28T17:37:10.629Z,54
2016-08-28T17:37:25.171Z,54
2016-08-28T17:37:37.049Z,54
2016-08-28T17:37:54.720Z,54
2016-08-28T17:38:11.713Z,54
2016-08-28T17:38:25.748Z,54
2016-08-28T17:38:36.936Z,54
2016-08-28T17:38:48.493Z,54
2016-08-28T17:39:02.734Z,54
2016-08-28T17:39:13.973Z,54
2016-08-28T17:39:28.000Z,54
2016-08-28T17:39:41.852Z,54
2016-08-28T17:39:53.080Z,54
2016-08-28T17:40:07.223Z,54
2016-08-28T17:40:21.245Z,54
2016-08-28T17:40:32.400Z,54
2016-08-28T17:40:43.660Z,54
2016-08-28T17:40:57.737Z,53
2016-08-28T17:41:11.792Z,53
2016-08-28T17:41:22.913Z,53
2016-08-28T17:41:34.104Z,53
2016-08-28T17:41:45.311Z,53
2016-08-28T17:41:56.402Z,53
2016-08-28T17:42:07.615Z,53
2016-08-28T17:42:21.717Z,53
2016-08-28T17:42:32.752Z,53
2016-08-28T17:42:46.719Z,53
2016-08-28T17:42:57.965Z,53
2016-08-28T17:43:14.946Z,53
2016-08-28T17:43:29.009Z,53
2016-08-28T17:43:40.195Z,53
2016-08-28T17:43:54.297Z,53
2016-08-28T17:44:08.204Z,53
2016-08-28T17:44:19.378Z,53
2016-08-28T17:44:30.600Z,53
2016-08-28T17:44:44.640Z,54
2016-08-28T17:44:58.775Z,54
2016-08-28T17:45:09.962Z,54
2016-08-28T17:45:21.029Z,54
2016-08-28T17:45:32.210Z,54
2016-08-28T17:45:43.430Z,54
2016-08-28T17:46:00.349Z,54
2016-08-28T17:46:11.449Z,54
2016-08-28T17:46:25.457Z,54
2016-08-28T17:46:39.485Z,54
2016-08-28T17:46:59.387Z,54
2016-08-28T17:47:13.278Z,54
2016-08-28T17:47:24.336Z,53
2016-08-28T17:47:35.534Z,54
2016-08-28T17:47:46.694Z,53
2016-08-28T17:48:00.688Z,54
2016-08-28T17:48:11.872Z,54
2016-08-28T17:48:23.098Z,54
2016-08-28T17:48:34.224Z,54
2016-08-28T17:48:48.359Z,54
2016-08-28T17:49:02.368Z,52
2016-08-28T17:49:13.507Z,53
2016-08-28T17:49:27.515Z,53
2016-08-28T17:49:38.636Z,53
2016-08-28T17:49:52.777Z,53
2016-08-28T17:50:04.031Z,53
2016-08-28T17:50:20.813Z,54
2016-08-28T17:50:34.943Z,54
2016-08-28T17:50:48.880Z,54
2016-08-28T17:51:00.066Z,54
2016-08-28T17:51:11.214Z,54
2016-08-28T17:51:31.043Z,54
2016-08-28T17:51:45.001Z,53
2016-08-28T17:51:56.219Z,53
2016-08-28T17:52:07.125Z,52
2016-08-28T17:52:18.310Z,52
2016-08-28T17:52:32.316Z,51
2016-08-28T17:52:43.234Z,51
2016-08-28T17:52:57.290Z,52
2016-08-28T17:53:11.244Z,52
2016-08-28T17:53:22.270Z,53
2016-08-28T17:53:36.300Z,52
2016-08-28T17:53:50.455Z,52
2016-08-28T17:54:01.508Z,51
2016-08-28T17:54:15.647Z,51
2016-08-28T17:54:29.729Z,51
2016-08-28T17:54:40.844Z,51
2016-08-28T17:54:51.987Z,51
2016-08-28T17:55:08.848Z,51
2016-08-28T17:55:22.843Z,51
2016-08-28T17:55:36.922Z,51
2016-08-28T17:55:50.909Z,52
2016-08-28T17:56:01.979Z,52
2016-08-28T17:56:16.121Z,52
2016-08-28T17:56:27.232Z,52
2016-08-28T17:56:41.268Z,53
2016-08-28T17:56:52.522Z,52
2016-08-28T17:57:03.722Z,52
2016-08-28T17:57:20.649Z,52
2016-08-28T17:57:34.754Z,52
2016-08-28T17:57:45.962Z,52
2016-08-28T17:57:57.140Z,52
2016-08-28T17:58:08.247Z,52
2016-08-28T17:58:19.353Z,53
2016-08-28T17:58:33.468Z,53
2016-08-28T17:58:44.596Z,53
2016-08-28T17:58:58.629Z,53
2016-08-28T17:59:09.874Z,53
2016-08-28T17:59:21.101Z,53
2016-08-28T17:59:35.166Z,53
2016-08-28T17:59:49.064Z,53
2016-08-28T18:00:03.146Z,53
2016-08-28T18:00:17.197Z,53
2016-08-28T18:00:31.217Z,53
2016-08-28T18:00:45.149Z,54
2016-08-28T18:01:00.110Z,54
2016-08-28T18:01:11.300Z,54
2016-08-28T18:01:22.419Z,54
2016-08-28T18:01:33.599Z,54
2016-08-28T18:01:47.813Z,54
2016-08-28T18:01:58.857Z,54
2016-08-28T18:02:10.015Z,54
2016-08-28T18:02:24.061Z,54
2016-08-28T18:02:38.044Z,54
2016-08-28T18:02:49.207Z,54
2016-08-28T18:03:00.386Z,54
2016-08-28T18:03:16.013Z,54
2016-08-28T18:03:32.988Z,54
2016-08-28T18:03:49.906Z,54
2016-08-28T18:04:03.999Z,54
2016-08-28T18:04:18.038Z,53
2016-08-28T18:04:32.055Z,53
2016-08-28T18:04:46.138Z,54
2016-08-28T18:05:00.368Z,54
2016-08-28T18:05:11.468Z,54
2016-08-28T18:05:22.633Z,53
2016-08-28T18:05:39.583Z,53
2016-08-28T18:05:50.710Z,53
2016-08-28T18:06:01.808Z,53
2016-08-28T18:06:13.013Z,53
2016-08-28T18:06:24.281Z,53
2016-08-28T18:06:38.345Z,53
2016-08-28T18:06:52.358Z,54
2016-08-28T18:07:09.293Z,54
2016-08-28T18:07:23.079Z,54
2016-08-28T18:07:34.166Z,54
2016-08-28T18:07:54.001Z,54
2016-08-28T18:08:07.909Z,54
2016-08-28T18:08:24.913Z,54
2016-08-28T18:08:39.042Z,54
2016-08-28T18:08:50.190Z,54
2016-08-28T18:09:01.365Z,54
2016-08-28T18:09:12.335Z,54
2016-08-28T18:09:23.560Z,54
2016-08-28T18:09:34.863Z,54
2016-08-28T18:09:48.836Z,54
2016-08-28T18:10:05.832Z,54
2016-08-28T18:10:17.078Z,54
2016-08-28T18:10:31.189Z,54
2016-08-28T18:10:42.284Z,54
2016-08-28T18:10:53.472Z,54
2016-08-28T18:11:04.495Z,54
2016-08-28T18:11:18.511Z,54
2016-08-28T18:11:32.617Z,54
2016-08-28T18:11:43.743Z,54
2016-08-28T18:11:55.023Z,54
2016-08-28T18:12:06.128Z,54
2016-08-28T18:12:17.326Z,54
2016-08-28T18:12:34.319Z,54
2016-08-28T18:12:45.519Z,54
2016-08-28T18:13:02.533Z,54
2016-08-28T18:13:13.811Z,54
2016-08-28T18:13:30.780Z,54
2016-08-28T18:13:44.781Z,54
2016-08-28T18:14:01.777Z,54
2016-08-28T18:14:12.954Z,54
2016-08-28T18:14:24.210Z,54
2016-08-28T18:14:35.366Z,54
2016-08-28T18:14:52.278Z,54
2016-08-28T18:15:06.392Z,54
2016-08-28T18:15:20.434Z,54
2016-08-28T18:15:34.483Z,54
2016-08-28T18:15:48.519Z,54
2016-08-28T18:15:59.647Z,54
2016-08-28T18:16:10.658Z,54
2016-08-28T18:16:27.589Z,54
2016-08-28T18:16:38.760Z,54
2016-08-28T18:16:52.817Z,54
2016-08-28T18:17:06.882Z,54
2016-08-28T18:17:20.947Z,54
2016-08-28T18:17:35.191Z,54
2016-08-28T18:17:46.290Z,54
2016-08-28T18:18:00.202Z,54
2016-08-28T18:18:14.179Z,54
2016-08-28T18:18:28.309Z,54
2016-08-28T18:18:39.479Z,54
2016-08-28T18:18:56.412Z,54
2016-08-28T18:19:10.516Z,55
2016-08-28T18:19:27.322Z,55
2016-08-28T18:19:46.996Z,55
2016-08-28T18:19:58.145Z,55
2016-08-28T18:20:12.269Z,55
2016-08-28T18:20:26.297Z,55
2016-08-28T18:20:37.404Z,55
2016-08-28T18:20:54.435Z,55
2016-08-28T18:21:05.608Z,55
2016-08-28T18:21:19.590Z,55
2016-08-28T18:21:33.642Z,55
2016-08-28T18:21:44.881Z,55
2016-08-28T18:21:58.859Z,55
2016-08-28T18:22:12.865Z,55
2016-08-28T18:22:23.991Z,55
2016-08-28T18:22:35.066Z,55
2016-08-28T18:22:46.040Z,55
2016-08-28T18:23:00.145Z,55
2016-08-28T18:23:14.214Z,55
2016-08-28T18:23:25.393Z,55
2016-08-28T18:23:36.514Z,55
2016-08-28T18:23:50.577Z,56
2016-08-28T18:24:01.807Z,56
2016-08-28T18:24:18.805Z,56
2016-08-28T18:24:32.827Z,55
2016-08-28T18:24:44.036Z,55
2016-08-28T18:24:55.138Z,56
2016-08-28T18:25:09.198Z,56
2016-08-28T18:25:23.138Z,56
2016-08-28T18:25:40.174Z,56
2016-08-28T18:25:51.273Z,56
2016-08-28T18:26:02.516Z,56
2016-08-28T18:26:13.683Z,56
2016-08-28T18:26:27.717Z,56
2016-08-28T18:26:41.801Z,56
2016-08-28T18:26:55.759Z,56
2016-08-28T18:27:09.822Z,56
2016-08-28T18:27:21.026Z,56
2016-08-28T18:27:32.159Z,56
2016-08-28T18:27:43.311Z,56
2016-08-28T18:27:54.545Z,56
2016-08-28T18:28:11.304Z,56
2016-08-28T18:28:25.341Z,56
2016-08-28T18:28:36.554Z,56
2016-08-28T18:28:47.720Z,56
2016-08-28T18:29:01.688Z,56
2016-08-28T18:29:12.867Z,56
2016-08-28T18:29:26.946Z,56
2016-08-28T18:29:40.889Z,56
2016-08-28T18:29:54.963Z,56
2016-08-28T18:30:09.005Z,56
2016-08-28T18:30:23.081Z,56
2016-08-28T18:30:37.112Z,56
2016-08-28T18:30:51.832Z,56
2016-08-28T18:31:05.856Z,56
2016-08-28T18:31:22.846Z,56
2016-08-28T18:31:36.891Z,56
2016-08-28T18:31:50.972Z,56
2016-08-28T18:32:08.058Z,56
2016-08-28T18:32:21.939Z,57
2016-08-28T18:32:33.182Z,57
2016-08-28T18:32:47.268Z,57
2016-08-28T18:33:01.221Z,56
2016-08-28T18:33:18.235Z,56
2016-08-28T18:33:32.358Z,56
2016-08-28T18:33:46.412Z,57
2016-08-28T18:34:03.280Z,57
2016-08-28T18:34:17.397Z,57
2016-08-28T18:34:28.504Z,57
2016-08-28T18:34:39.609Z,57
2016-08-28T18:34:53.619Z,57
2016-08-28T18:35:10.567Z,57
2016-08-28T18:35:24.717Z,57
2016-08-28T18:35:35.791Z,57
2016-08-28T18:35:49.815Z,57
2016-08-28T18:36:03.943Z,57
2016-08-28T18:36:17.961Z,57
2016-08-28T18:36:29.041Z,57
2016-08-28T18:36:43.099Z,57
2016-08-28T18:36:57.100Z,57
2016-08-28T18:37:13.999Z,57
2016-08-28T18:37:25.226Z,57
2016-08-28T18:37:42.204Z,57
2016-08-28T18:37:56.094Z,58
2016-08-28T18:38:13.029Z,58
2016-08-28T18:38:24.129Z,58
2016-08-28T18:38:38.169Z,58
2016-08-28T18:38:49.245Z,58
2016-08-28T18:39:06.072Z,58
2016-08-28T18:39:17.170Z,58
2016-08-28T18:39:28.323Z,58
2016-08-28T18:39:42.321Z,57
2016-08-28T18:39:56.388Z,58
2016-08-28T18:40:07.656Z,58
2016-08-28T18:40:24.501Z,57
2016-08-28T18:40:35.678Z,57
2016-08-28T18:40:46.851Z,57
2016-08-28T18:40:58.005Z,57
2016-08-28T18:41:12.029Z,57
2016-08-28T18:41:23.114Z,57
2016-08-28T18:41:34.293Z,57
2016-08-28T18:41:54.038Z,57
2016-08-28T18:42:08.051Z,57
2016-08-28T18:42:25.038Z,57
2016-08-28T18:42:39.062Z,57
2016-08-28T18:42:50.193Z,57
2016-08-28T18:43:01.384Z,57
2016-08-28T18:43:12.564Z,57
2016-08-28T18:43:23.694Z,57
2016-08-28T18:43:37.751Z,57
2016-08-28T18:43:48.873Z,57
2016-08-28T18:44:02.927Z,57
2016-08-28T18:44:16.891Z,57
2016-08-28T18:44:30.922Z,57
2016-08-28T18:44:42.012Z,57
2016-08-28T18:44:58.971Z,56
2016-08-28T18:45:10.107Z,56
2016-08-28T18:45:24.035Z,56
2016-08-28T18:45:35.318Z,56
2016-08-28T18:45:46.495Z,56
2016-08-28T18:45:58.695Z,56
2016-08-28T18:46:10.206Z,56
2016-08-28T18:46:25.852Z,56
2016-08-28T18:46:43.118Z,55
2016-08-28T18:46:54.280Z,55
2016-08-28T18:47:11.178Z,54
2016-08-28T18:47:23.920Z,54
2016-08-28T18:47:38.008Z,55
2016-08-28T18:47:55.054Z,55
2016-08-28T18:48:06.274Z,55
2016-08-28T18:48:17.778Z,55
2016-08-28T18:48:34.584Z,55
2016-08-28T18:48:45.800Z,55
2016-08-28T18:48:57.056Z,54
2016-08-28T18:49:09.363Z,54
2016-08-28T18:49:27.845Z,54
2016-08-28T18:49:38.995Z,54
2016-08-28T18:49:50.669Z,54
2016-08-28T18:50:10.546Z,54
2016-08-28T18:50:21.720Z,53
2016-08-28T18:50:32.910Z,54
2016-08-28T18:50:44.251Z,53
2016-08-28T18:50:55.354Z,53
2016-08-28T18:51:06.481Z,53
2016-08-28T18:51:23.361Z,53
2016-08-28T18:51:37.523Z,53
2016-08-28T18:51:54.424Z,53
2016-08-28T18:52:05.651Z,53
2016-08-28T18:52:19.589Z,53
2016-08-28T18:52:30.589Z,53
2016-08-28T18:52:46.512Z,52
2016-08-28T18:52:58.972Z,52
2016-08-28T18:53:13.117Z,52
2016-08-28T18:53:24.295Z,52
2016-08-28T18:53:41.284Z,52
2016-08-28T18:53:55.257Z,52
2016-08-28T18:54:09.736Z,52
2016-08-28T18:54:23.850Z,52
2016-08-28T18:54:38.356Z,52
2016-08-28T18:54:49.511Z,52
2016-08-28T18:55:06.606Z,52
2016-08-28T18:55:23.564Z,51
2016-08-28T18:55:37.857Z,51
2016-08-28T18:55:48.993Z,51
2016-08-28T18:56:00.357Z,51
2016-08-28T18:56:11.597Z,50
2016-08-28T18:56:28.441Z,50
2016-08-28T18:56:45.387Z,50
2016-08-28T18:56:59.992Z,50
2016-08-28T18:57:11.079Z,50
2016-08-28T18:57:33.806Z,50
2016-08-28T18:57:45.584Z,50
2016-08-28T18:58:02.522Z,50
2016-08-28T18:58:14.215Z,51
2016-08-28T18:58:25.254Z,51
2016-08-28T18:58:39.223Z,50
2016-08-28T18:58:50.858Z,50
2016-08-28T18:59:04.963Z,50
2016-08-28T18:59:18.882Z,50
2016-08-28T18:59:32.957Z,50
2016-08-28T18:59:47.065Z,50
2016-08-28T18:59:58.141Z,50
2016-08-28T19:00:15.070Z,50
2016-08-28T19:00:33.335Z,50
2016-08-28T19:00:46.265Z,50
2016-08-28T19:01:10.117Z,50
2016-08-28T19:01:36.404Z,50
2016-08-28T19:01:50.638Z,50
2016-08-28T19:02:07.828Z,50
2016-08-28T19:02:22.172Z,50
2016-08-28T19:02:33.406Z,50
2016-08-28T19:02:44.636Z,50
2016-08-28T19:02:58.949Z,50
2016-08-28T19:03:14.000Z,51
2016-08-28T19:03:25.330Z,51
2016-08-28T19:03:36.830Z,51
2016-08-28T19:03:50.953Z,51
2016-08-28T19:04:02.729Z,51
2016-08-28T19:04:16.948Z,50
2016-08-28T19:04:34.348Z,51
2016-08-28T19:04:54.723Z,51
2016-08-28T19:05:09.060Z,51
2016-08-28T19:05:25.978Z,51
2016-08-28T19:05:42.964Z,51
2016-08-28T19:05:54.390Z,51
2016-08-28T19:06:08.926Z,51
2016-08-28T19:06:22.801Z,51
2016-08-28T19:06:37.017Z,51
2016-08-28T19:06:51.078Z,51
2016-08-28T19:07:08.259Z,51
2016-08-28T19:07:22.469Z,51
2016-08-28T19:07:36.464Z,51
2016-08-28T19:07:47.633Z,51
2016-08-28T19:07:58.889Z,51
2016-08-28T19:08:09.975Z,51
2016-08-28T19:08:23.871Z,51
2016-08-28T19:08:37.972Z,51
2016-08-28T19:08:54.840Z,51
2016-08-28T19:09:08.915Z,51
2016-08-28T19:09:25.948Z,51
2016-08-28T19:09:45.843Z,51
2016-08-28T19:10:00.152Z,51
2016-08-28T19:10:14.202Z,51
2016-08-28T19:10:31.180Z,51
2016-08-28T19:10:42.513Z,51
2016-08-28T19:10:53.757Z,51
2016-08-28T19:11:07.827Z,51
2016-08-28T19:11:19.106Z,51
2016-08-28T19:11:33.198Z,51
2016-08-28T19:11:49.929Z,51
2016-08-28T19:12:08.574Z,51
2016-08-28T19:12:31.643Z,51
2016-08-28T19:12:43.315Z,51
2016-08-28T19:13:01.221Z,51
2016-08-28T19:13:15.411Z,51
2016-08-28T19:13:26.720Z,51
2016-08-28T19:13:40.863Z,51
2016-08-28T19:13:52.736Z,51
2016-08-28T19:14:04.021Z,51
2016-08-28T19:14:15.172Z,51
2016-08-28T19:14:29.126Z,51
2016-08-28T19:14:48.770Z,51
2016-08-28T19:15:00.033Z,50
2016-08-28T19:15:17.019Z,51
2016-08-28T19:15:28.207Z,51
2016-08-28T19:15:39.443Z,51
2016-08-28T19:15:56.284Z,51
2016-08-28T19:16:10.374Z,51
2016-08-28T19:16:24.533Z,51
2016-08-28T19:16:38.487Z,51
2016-08-28T19:16:52.547Z,51
2016-08-28T19:17:03.678Z,50
2016-08-28T19:17:23.494Z,50
2016-08-28T19:17:34.636Z,50
2016-08-28T19:17:51.548Z,50
2016-08-28T19:18:02.796Z,50
2016-08-28T19:18:16.810Z,51
2016-08-28T19:18:27.995Z,51
2016-08-28T19:18:42.012Z,50
2016-08-28T19:18:53.141Z,50
2016-08-28T19:19:10.047Z,50
2016-08-28T19:19:24.087Z,50
2016-08-28T19:19:35.262Z,50
2016-08-28T19:19:49.342Z,50
2016-08-28T19:20:06.097Z,50
2016-08-28T19:20:20.152Z,50
2016-08-28T19:20:31.371Z,50
2016-08-28T19:20:42.496Z,50
2016-08-28T19:20:56.534Z,50
2016-08-28T19:21:10.542Z,50
2016-08-28T19:21:24.610Z,50
2016-08-28T19:21:41.545Z,50
2016-08-28T19:21:55.662Z,50
2016-08-28T19:22:06.822Z,50
2016-08-28T19:22:20.869Z,49
2016-08-28T19:22:34.743Z,49
2016-08-28T19:22:48.819Z,49
2016-08-28T19:23:02.958Z,50
2016-08-28T19:23:13.988Z,50
2016-08-28T19:23:28.050Z,50
2016-08-28T19:23:42.097Z,50
2016-08-28T19:23:53.211Z,50
2016-08-28T19:24:07.189Z,50
2016-08-28T19:24:21.311Z,49
2016-08-28T19:24:38.206Z,49
2016-08-28T19:24:49.383Z,49
2016-08-28T19:25:03.451Z,49
2016-08-28T19:25:20.340Z,49
2016-08-28T19:25:31.466Z,49
2016-08-28T19:25:42.713Z,50
2016-08-28T19:25:59.653Z,49
2016-08-28T19:26:10.925Z,50
2016-08-28T19:26:25.052Z,50
2016-08-28T19:26:44.892Z,50
2016-08-28T19:26:56.077Z,50
2016-08-28T19:27:10.054Z,50
2016-08-28T19:27:21.160Z,49
2016-08-28T19:27:32.325Z,49
2016-08-28T19:27:43.454Z,49
2016-08-28T19:28:00.411Z,48
2016-08-28T19:28:14.463Z,48
2016-08-28T19:28:25.511Z,49
2016-08-28T19:28:36.703Z,49
2016-08-28T19:28:47.886Z,48
2016-08-28T19:29:01.824Z,48
2016-08-28T19:29:12.931Z,48
2016-08-28T19:29:23.994Z,49
2016-08-28T19:29:35.139Z,49
2016-08-28T19:29:46.230Z,49
2016-08-28T19:30:00.299Z,49
2016-08-28T19:30:17.269Z,49
2016-08-28T19:30:37.089Z,49
2016-08-28T19:30:51.456Z,49
2016-08-28T19:31:06.048Z,49
2016-08-28T19:31:19.943Z,49
2016-08-28T19:31:33.908Z,49
2016-08-28T19:31:47.999Z,49
2016-08-28T19:31:59.251Z,49
2016-08-28T19:32:10.387Z,50
2016-08-28T19:32:21.580Z,49
2016-08-28T19:32:32.834Z,49
2016-08-28T19:32:49.654Z,49
2016-08-28T19:33:00.842Z,49
2016-08-28T19:33:14.972Z,49
2016-08-28T19:33:26.204Z,49
2016-08-28T19:33:37.418Z,49
2016-08-28T19:33:51.488Z,49
2016-08-28T19:34:05.560Z,50
2016-08-28T19:34:16.830Z,50
2016-08-28T19:34:30.824Z,49
2016-08-28T19:34:44.868Z,50
2016-08-28T19:35:01.873Z,50
2016-08-28T19:35:15.932Z,50
2016-08-28T19:35:29.850Z,50
2016-08-28T19:35:41.071Z,50
2016-08-28T19:35:52.204Z,50
2016-08-28T19:36:03.408Z,50
2016-08-28T19:36:14.574Z,50
2016-08-28T19:36:28.556Z,50
2016-08-28T19:36:42.692Z,50
2016-08-28T19:36:59.710Z,50
2016-08-28T19:37:13.778Z,50
2016-08-28T19:37:27.836Z,50
2016-08-28T19:37:41.918Z,49
2016-08-28T19:37:58.863Z,50
2016-08-28T19:38:10.078Z,50
2016-08-28T19:38:24.120Z,50
2016-08-28T19:38:35.209Z,50
2016-08-28T19:38:46.384Z,50
2016-08-28T19:39:00.395Z,50
2016-08-28T19:39:14.396Z,50
2016-08-28T19:39:28.456Z,49
2016-08-28T19:39:42.559Z,49
2016-08-28T19:39:53.675Z,50
2016-08-28T19:40:07.680Z,50
2016-08-28T19:40:24.686Z,50
2016-08-28T19:40:38.662Z,50
2016-08-28T19:40:49.710Z,50
2016-08-28T19:41:03.904Z,50
2016-08-28T19:41:17.882Z,50
2016-08-28T19:41:31.938Z,50
2016-08-28T19:41:46.076Z,50
2016-08-28T19:41:57.211Z,50
2016-08-28T19:42:11.154Z,50
2016-08-28T19:42:25.231Z,50
2016-08-28T19:42:39.259Z,50
2016-08-28T19:42:50.437Z,50
2016-08-28T19:43:04.469Z,50
2016-08-28T19:43:15.509Z,50
2016-08-28T19:43:29.503Z,50
2016-08-28T19:43:40.728Z,50
2016-08-28T19:43:54.683Z,50
2016-08-28T19:44:14.856Z,51
2016-08-28T19:44:34.710Z,51
2016-08-28T19:44:51.620Z,51
2016-08-28T19:45:11.510Z,51
2016-08-28T19:45:22.733Z,50
2016-08-28T19:45:36.797Z,51
2016-08-28T19:45:48.115Z,51
2016-08-28T19:46:05.036Z,50
2016-08-28T19:46:19.102Z,50
2016-08-28T19:46:36.299Z,50
2016-08-28T19:46:47.389Z,50
2016-08-28T19:47:01.422Z,50
2016-08-28T19:47:15.579Z,51
2016-08-28T19:47:32.638Z,50
2016-08-28T19:47:43.884Z,50
2016-08-28T19:47:58.316Z,50
2016-08-28T19:48:18.044Z,50
2016-08-28T19:48:29.256Z,51
2016-08-28T19:48:43.229Z,50
2016-08-28T19:48:57.245Z,50
2016-08-28T19:49:08.536Z,51
2016-08-28T19:49:19.646Z,51
2016-08-28T19:49:30.845Z,51
2016-08-28T19:49:47.869Z,51
2016-08-28T19:49:58.908Z,51
2016-08-28T19:50:12.884Z,51
2016-08-28T19:50:32.826Z,51
2016-08-28T19:50:46.852Z,51
2016-08-28T19:50:58.000Z,51
2016-08-28T19:51:09.254Z,51
2016-08-28T19:51:29.171Z,51
2016-08-28T19:51:46.127Z,51
2016-08-28T19:52:03.439Z,51
2016-08-28T19:52:15.194Z,51
2016-08-28T19:52:26.617Z,51
2016-08-28T19:52:40.819Z,51
2016-08-28T19:52:55.175Z,51
2016-08-28T19:53:12.362Z,51
2016-08-28T19:53:28.776Z,51
2016-08-28T19:53:45.876Z,51
2016-08-28T19:54:06.064Z,51
2016-08-28T19:54:22.330Z,51
2016-08-28T19:54:39.578Z,51
2016-08-28T19:54:57.482Z,51
2016-08-28T19:55:08.773Z,51
2016-08-28T19:55:20.065Z,51
2016-08-28T19:55:38.698Z,51
2016-08-28T19:55:58.516Z,51
2016-08-28T19:56:14.434Z,51
2016-08-28T19:56:34.206Z,51
2016-08-28T19:56:50.020Z,51
2016-08-28T19:57:07.188Z,51
2016-08-28T19:57:19.464Z,51
2016-08-28T19:57:37.020Z,51
2016-08-28T19:57:54.409Z,51
2016-08-28T19:58:09.961Z,51
2016-08-28T19:58:31.607Z,51
2016-08-28T19:58:47.780Z,51
2016-08-28T19:59:02.725Z,51
2016-08-28T19:59:17.279Z,51
2016-08-28T19:59:36.489Z,51
2016-08-28T19:59:48.676Z,51
2016-08-28T20:00:07.017Z,51
2016-08-28T20:00:42.983Z,51
2016-08-28T20:01:15.447Z,51
2016-08-28T20:01:45.639Z,51
2016-08-28T20:02:16.946Z,51
2016-08-28T20:02:55.988Z,51
2016-08-28T20:03:26.840Z,51
2016-08-28T20:04:10.610Z,51
2016-08-28T20:04:50.002Z,51
2016-08-28T20:05:23.714Z,51
2016-08-28T20:06:04.052Z,51
2016-08-28T20:06:40.234Z,51
2016-08-28T20:07:11.001Z,51
2016-08-28T20:07:43.525Z,51
2016-08-28T20:08:20.005Z,51
2016-08-28T20:08:57.302Z,51
2016-08-28T20:09:33.569Z,51
2016-08-28T20:10:07.803Z,51
2016-08-28T20:10:38.986Z,51
2016-08-28T20:11:21.941Z,51
2016-08-28T20:11:46.179Z,51
2016-08-28T20:12:19.227Z,52
2016-08-28T20:12:59.598Z,52
2016-08-28T20:13:41.818Z,52
2016-08-28T20:14:22.837Z,52
2016-08-28T20:15:04.181Z,52
2016-08-28T20:15:47.560Z,52
2016-08-28T20:16:25.307Z,52
2016-08-28T20:16:57.733Z,52
2016-08-28T20:17:31.457Z,52
2016-08-28T20:18:06.091Z,52
2016-08-28T20:18:39.267Z,52
2016-08-28T20:19:19.662Z,52
2016-08-28T20:19:47.992Z,52
2016-08-28T20:20:27.312Z,52
2016-08-28T20:20:55.608Z,53
2016-08-28T20:21:32.659Z,53
2016-08-28T20:22:00.673Z,52